createdAt,value
2023-02-09T00:02:12.913Z,5.63
2023-02-09T00:04:39.703Z,7.05
2023-02-09T00:07:06.299Z,5.80
2023-02-09T00:09:32.951Z,6.43
2023-02-09T00:12:19.817Z,6.07
2023-02-09T00:14:46.413Z,5.65
2023-02-09T00:17:13.557Z,7.07
2023-02-09T00:19:40.209Z,6.57
2023-02-09T00:22:06.885Z,6.65
2023-02-09T00:24:33.583Z,6.05
2023-02-09T00:27:00.140Z,6.03
2023-02-09T00:29:27.594Z,5.97
2023-02-09T00:31:54.215Z,5.97
2023-02-09T00:34:20.859Z,6.43
2023-02-09T00:36:47.572Z,5.85
2023-02-09T00:39:14.161Z,6.05
2023-02-09T00:41:59.342Z,7.13
2023-02-09T00:44:26.003Z,6.13
2023-02-09T00:46:52.574Z,6.28
2023-02-09T00:49:19.286Z,6.13
2023-02-09T00:51:46.649Z,5.00
2023-02-09T00:54:14.146Z,6.03
2023-02-09T00:56:40.695Z,6.43
2023-02-09T00:59:07.287Z,6.03
2023-02-09T01:01:33.945Z,5.47
2023-02-09T01:04:00.730Z,5.90
2023-02-09T01:06:28.819Z,5.90
2023-02-09T01:08:55.484Z,6.23
2023-02-09T01:11:23.017Z,6.07
2023-02-09T01:13:49.670Z,6.40
2023-02-09T01:16:17.696Z,6.28
2023-02-09T01:18:44.489Z,6.85
2023-02-09T01:21:12.847Z,5.63
2023-02-09T01:23:39.687Z,6.45
2023-02-09T01:26:08.744Z,6.55
2023-02-09T01:28:36.506Z,6.43
2023-02-09T01:31:06.942Z,6.68
2023-02-09T01:33:33.586Z,6.13
2023-02-09T01:36:04.247Z,5.43
2023-02-09T01:38:30.956Z,5.82
2023-02-09T01:40:57.521Z,5.88
2023-02-09T01:43:24.083Z,5.97
2023-02-09T01:45:54.657Z,5.50
2023-02-09T01:48:25.753Z,5.32
2023-02-09T01:50:54.256Z,6.68
2023-02-09T01:53:21.226Z,6.13
2023-02-09T01:55:52.613Z,6.00
2023-02-09T01:58:20.795Z,6.60
2023-02-09T02:00:48.052Z,6.20
2023-02-09T02:03:19.053Z,6.63
2023-02-09T02:05:49.440Z,7.13
2023-02-09T02:08:19.117Z,6.32
2023-02-09T02:10:46.081Z,5.67
2023-02-09T02:13:12.885Z,5.55
2023-02-09T02:15:58.665Z,5.78
2023-02-09T02:18:56.060Z,4.95
2023-02-09T02:21:28.231Z,6.13
2023-02-09T02:24:09.858Z,6.30
2023-02-09T02:26:55.521Z,6.05
2023-02-09T02:29:31.086Z,5.45
2023-02-09T02:32:09.713Z,5.85
2023-02-09T02:35:05.304Z,6.18
2023-02-09T02:37:43.190Z,5.67
2023-02-09T02:40:28.395Z,6.38
2023-02-09T02:43:31.533Z,5.82
2023-02-09T02:46:01.882Z,5.55
2023-02-09T02:48:37.512Z,5.63
2023-02-09T02:51:05.415Z,6.10
2023-02-09T02:53:34.508Z,5.10
2023-02-09T02:56:20.396Z,5.72
2023-02-09T02:58:49.113Z,6.45
2023-02-09T03:01:18.772Z,5.47
2023-02-09T03:03:46.601Z,5.20
2023-02-09T03:06:13.501Z,5.28
2023-02-09T03:08:57.329Z,6.60
2023-02-09T03:11:29.557Z,5.63
2023-02-09T03:13:58.762Z,6.63
2023-02-09T03:16:49.640Z,6.27
2023-02-09T03:19:30.326Z,5.30
2023-02-09T03:21:59.351Z,5.60
2023-02-09T03:24:35.000Z,5.13
2023-02-09T03:27:10.134Z,5.18
2023-02-09T03:29:37.881Z,5.87
2023-02-09T03:32:04.680Z,5.60
2023-02-09T03:34:31.272Z,5.53
2023-02-09T03:36:57.979Z,5.97
2023-02-09T03:39:24.842Z,5.95
2023-02-09T03:41:51.417Z,5.27
2023-02-09T03:44:27.032Z,5.80
2023-02-09T03:46:59.063Z,6.32
2023-02-09T03:49:27.649Z,5.25
2023-02-09T03:51:54.526Z,5.43
2023-02-09T03:54:21.683Z,5.70
2023-02-09T03:56:48.612Z,5.15
2023-02-09T03:59:15.272Z,5.32
2023-02-09T04:01:41.833Z,5.35
2023-02-09T04:04:08.747Z,6.35
2023-02-09T04:06:35.968Z,5.30
2023-02-09T04:09:03.714Z,5.68
2023-02-09T04:11:30.344Z,5.38
2023-02-09T04:13:57.292Z,5.28
2023-02-09T04:16:23.997Z,5.80
2023-02-09T04:18:50.821Z,6.13
2023-02-09T04:21:17.585Z,5.32
2023-02-09T04:23:44.188Z,5.82
2023-02-09T04:26:10.914Z,5.97
2023-02-09T04:28:37.516Z,5.20
2023-02-09T04:31:04.542Z,5.03
2023-02-09T04:33:31.341Z,5.95
2023-02-09T04:35:58.277Z,5.18
2023-02-09T04:38:26.493Z,5.97
2023-02-09T04:40:54.660Z,5.43
2023-02-09T04:43:21.259Z,5.47
2023-02-09T04:45:47.940Z,4.97
2023-02-09T04:48:16.669Z,5.55
2023-02-09T04:50:43.775Z,5.30
2023-02-09T04:53:10.677Z,5.72
2023-02-09T04:55:42.747Z,5.67
2023-02-09T04:58:33.433Z,6.28
2023-02-09T05:01:00.060Z,5.15
2023-02-09T05:03:26.963Z,5.55
2023-02-09T05:05:58.038Z,6.28
2023-02-09T05:08:25.029Z,4.93
2023-02-09T05:10:52.236Z,5.65
2023-02-09T05:13:19.914Z,5.40
2023-02-09T05:15:46.758Z,5.68
2023-02-09T05:18:13.935Z,5.53
2023-02-09T05:20:40.996Z,5.77
2023-02-09T05:23:07.612Z,5.50
2023-02-09T05:25:34.210Z,5.95
2023-02-09T05:28:00.884Z,4.97
2023-02-09T05:30:27.488Z,5.25
2023-02-09T05:32:54.423Z,5.77
2023-02-09T05:35:21.157Z,4.93
2023-02-09T05:37:47.768Z,5.60
2023-02-09T05:40:14.410Z,5.85
2023-02-09T05:42:41.213Z,4.88
2023-02-09T05:45:08.663Z,5.70
2023-02-09T05:47:35.268Z,5.50
2023-02-09T05:50:01.982Z,6.03
2023-02-09T05:52:28.698Z,5.80
2023-02-09T05:54:55.296Z,5.68
2023-02-09T05:57:21.873Z,5.90
2023-02-09T05:59:48.467Z,5.05
2023-02-09T06:02:15.147Z,5.25
2023-02-09T06:04:41.847Z,5.22
2023-02-09T06:07:10.361Z,5.80
2023-02-09T06:09:38.234Z,5.13
2023-02-09T06:12:04.953Z,5.35
2023-02-09T06:14:31.526Z,5.60
2023-02-09T06:16:58.138Z,5.88
2023-02-09T06:19:24.789Z,5.38
2023-02-09T06:21:51.366Z,5.03
2023-02-09T06:24:17.960Z,4.78
2023-02-09T06:26:44.552Z,5.75
2023-02-09T06:29:11.145Z,5.38
2023-02-09T06:31:38.425Z,5.45
2023-02-09T06:34:05.875Z,5.20
2023-02-09T06:36:32.775Z,5.50
2023-02-09T06:38:59.511Z,6.00
2023-02-09T06:41:26.145Z,5.32
2023-02-09T06:43:52.829Z,5.32
2023-02-09T06:46:19.429Z,5.40
2023-02-09T06:48:46.050Z,5.00
2023-02-09T06:51:15.004Z,5.68
2023-02-09T06:53:42.831Z,5.55
2023-02-09T06:56:10.451Z,4.90
2023-02-09T06:58:38.082Z,6.10
2023-02-09T07:01:07.257Z,5.30
2023-02-09T07:03:33.880Z,5.13
2023-02-09T07:06:07.853Z,5.50
2023-02-09T07:08:35.145Z,6.30
2023-02-09T07:11:05.337Z,5.00
2023-02-09T07:13:32.086Z,5.28
2023-02-09T07:16:00.680Z,5.72
2023-02-09T07:18:27.600Z,5.45
2023-02-09T07:20:56.305Z,5.15
2023-02-09T07:23:23.830Z,5.43
2023-02-09T07:25:50.794Z,5.03
2023-02-09T07:28:20.701Z,5.35
2023-02-09T07:30:54.487Z,6.18
2023-02-09T07:33:22.092Z,6.40
2023-02-09T07:35:48.942Z,5.30
2023-02-09T07:38:15.821Z,4.90
2023-02-09T07:40:46.842Z,5.60
2023-02-09T07:43:14.180Z,4.93
2023-02-09T07:45:41.915Z,5.22
2023-02-09T07:48:10.355Z,5.33
2023-02-09T07:50:37.095Z,4.80
2023-02-09T07:53:05.702Z,5.30
2023-02-09T07:55:32.354Z,5.78
2023-02-09T07:57:59.103Z,5.22
2023-02-09T08:00:26.125Z,5.20
2023-02-09T08:02:52.777Z,5.35
2023-02-09T08:05:54.739Z,5.05
2023-02-09T08:08:21.345Z,6.38
2023-02-09T08:10:48.194Z,4.68
2023-02-09T08:13:15.449Z,4.63
2023-02-09T08:15:54.606Z,5.80
2023-02-09T08:18:25.931Z,5.68
2023-02-09T08:20:52.883Z,4.80
2023-02-09T08:23:26.986Z,4.93
2023-02-09T08:25:54.210Z,4.80
2023-02-09T08:28:23.855Z,4.93
2023-02-09T08:30:55.914Z,4.68
2023-02-09T08:33:22.664Z,5.32
2023-02-09T08:35:52.402Z,5.32
2023-02-09T08:38:19.725Z,5.00
2023-02-09T08:40:46.715Z,4.97
2023-02-09T08:43:14.074Z,4.90
2023-02-09T08:45:41.889Z,4.85
2023-02-09T08:48:12.271Z,4.90
2023-02-09T08:50:39.603Z,4.87
2023-02-09T08:53:06.797Z,4.63
2023-02-09T08:55:34.575Z,4.65
2023-02-09T08:58:01.676Z,5.20
2023-02-09T09:00:28.462Z,4.88
2023-02-09T09:02:55.079Z,4.77
2023-02-09T09:05:21.741Z,5.22
2023-02-09T09:07:48.422Z,4.43
2023-02-09T09:10:15.113Z,5.82
2023-02-09T09:12:41.695Z,5.60
2023-02-09T09:15:08.656Z,5.27
2023-02-09T09:17:35.431Z,5.75
2023-02-09T09:20:02.038Z,4.82
2023-02-09T09:22:28.636Z,4.35
2023-02-09T09:24:55.471Z,4.35
2023-02-09T09:27:22.108Z,5.23
2023-02-09T09:29:48.754Z,4.97
2023-02-09T09:32:15.473Z,5.70
2023-02-09T09:34:42.417Z,4.32
2023-02-09T09:37:09.014Z,5.30
2023-02-09T09:39:35.597Z,4.60
2023-02-09T09:42:02.305Z,4.78
2023-02-09T09:44:45.671Z,4.65
2023-02-09T09:47:18.396Z,5.07
2023-02-09T09:49:45.256Z,4.93
2023-02-09T09:52:24.271Z,5.10
2023-02-09T09:54:51.255Z,5.03
2023-02-09T09:57:26.474Z,4.88
2023-02-09T09:59:54.745Z,4.88
2023-02-09T10:02:23.555Z,5.30
2023-02-09T10:04:50.453Z,5.13
2023-02-09T10:07:21.782Z,5.25
2023-02-09T10:09:56.178Z,5.25
2023-02-09T10:12:36.413Z,4.53
2023-02-09T10:15:29.796Z,5.00
2023-02-09T10:17:58.013Z,4.73
2023-02-09T10:20:46.861Z,5.10
2023-02-09T10:23:18.890Z,5.30
2023-02-09T10:25:58.933Z,5.40
2023-02-09T10:28:29.847Z,4.88
2023-02-09T10:30:59.434Z,5.57
2023-02-09T10:33:27.322Z,5.82
2023-02-09T10:35:59.047Z,5.55
2023-02-09T10:38:33.050Z,4.82
2023-02-09T10:41:00.503Z,5.05
2023-02-09T10:43:32.586Z,4.53
2023-02-09T10:46:04.361Z,5.68
2023-02-09T10:48:40.863Z,4.63
2023-02-09T10:51:12.617Z,4.82
2023-02-09T10:54:01.000Z,5.00
2023-02-09T10:56:46.102Z,5.30
2023-02-09T10:59:20.590Z,5.13
2023-02-09T11:02:23.270Z,4.65
2023-02-09T11:04:49.946Z,5.05
2023-02-09T11:07:19.760Z,4.85
2023-02-09T11:09:48.901Z,4.83
2023-02-09T11:12:15.570Z,4.40
2023-02-09T11:14:43.078Z,4.93
2023-02-09T11:17:15.917Z,4.88
2023-02-09T11:19:54.770Z,4.72
2023-02-09T11:22:59.900Z,5.33
2023-02-09T11:25:45.802Z,4.43
2023-02-09T11:28:21.309Z,4.25
2023-02-09T11:30:54.093Z,5.10
2023-02-09T11:33:31.164Z,4.35
2023-02-09T11:36:35.483Z,4.77
2023-02-09T11:39:06.147Z,5.13
2023-02-09T11:41:58.948Z,4.72
2023-02-09T11:44:28.089Z,6.05
2023-02-09T11:47:01.813Z,4.35
2023-02-09T11:49:30.281Z,4.40
2023-02-09T11:51:59.110Z,4.53
2023-02-09T11:54:30.334Z,4.60
2023-02-09T11:57:01.191Z,4.55
2023-02-09T11:59:44.522Z,5.00
2023-02-09T12:02:23.886Z,4.37
2023-02-09T12:04:57.258Z,4.53
2023-02-09T12:08:11.867Z,4.78
2023-02-09T12:10:47.117Z,5.20
2023-02-09T12:13:25.761Z,4.35
2023-02-09T12:15:54.700Z,4.60
2023-02-09T12:18:23.870Z,4.13
2023-02-09T12:21:01.691Z,5.03
2023-02-09T12:23:42.797Z,4.57
2023-02-09T12:26:12.466Z,3.85
2023-02-09T12:28:44.997Z,4.33
2023-02-09T12:31:16.440Z,5.68
2023-02-09T12:33:46.135Z,5.03
2023-02-09T12:36:12.760Z,4.57
2023-02-09T12:39:04.793Z,5.32
2023-02-09T12:41:34.527Z,4.83
2023-02-09T12:44:10.250Z,4.50
2023-02-09T12:46:48.728Z,4.72
2023-02-09T12:49:22.957Z,4.45
2023-02-09T12:51:55.396Z,5.03
2023-02-09T12:54:40.791Z,4.27
2023-02-09T12:57:16.922Z,4.43
2023-02-09T12:59:52.718Z,4.95
2023-02-09T13:02:50.767Z,4.55
2023-02-09T13:05:26.993Z,4.00
2023-02-09T13:08:02.046Z,4.37
2023-02-09T13:10:47.412Z,5.40
2023-02-09T13:13:27.717Z,4.82
2023-02-09T13:15:54.287Z,4.72
2023-02-09T13:18:26.172Z,4.50
2023-02-09T13:21:10.929Z,4.40
2023-02-09T13:23:52.760Z,4.82
2023-02-09T13:26:22.945Z,4.97
2023-02-09T13:28:49.717Z,5.15
2023-02-09T13:31:24.815Z,4.57
2023-02-09T13:33:56.301Z,4.50
2023-02-09T13:36:25.620Z,4.80
2023-02-09T13:38:52.830Z,4.63
2023-02-09T13:41:35.266Z,4.28
2023-02-09T13:44:02.011Z,4.35
2023-02-09T13:46:34.427Z,4.00
2023-02-09T13:49:12.536Z,4.63
2023-02-09T13:51:39.286Z,3.72
2023-02-09T13:54:05.930Z,4.15
2023-02-09T13:56:33.465Z,4.15
2023-02-09T13:59:00.516Z,4.40
2023-02-09T14:01:35.686Z,5.00
2023-02-09T14:04:12.323Z,4.75
2023-02-09T14:07:01.633Z,4.22
2023-02-09T14:09:42.643Z,4.15
2023-02-09T14:12:16.326Z,4.07
2023-02-09T14:15:04.888Z,4.45
2023-02-09T14:17:35.738Z,4.47
2023-02-09T14:20:03.317Z,4.72
2023-02-09T14:22:35.783Z,4.82
2023-02-09T14:25:14.260Z,4.10
2023-02-09T14:27:41.598Z,4.55
2023-02-09T14:30:20.441Z,3.88
2023-02-09T14:32:52.139Z,4.55
2023-02-09T14:35:30.395Z,4.50
2023-02-09T14:38:01.621Z,3.73
2023-02-09T14:40:28.301Z,4.60
2023-02-09T14:42:59.180Z,4.75
2023-02-09T14:45:25.733Z,4.97
2023-02-09T14:47:52.346Z,5.60
2023-02-09T14:50:21.913Z,4.17
2023-02-09T14:52:51.941Z,4.32
2023-02-09T14:55:24.912Z,4.78
2023-02-09T14:57:51.728Z,4.30
2023-02-09T15:00:24.086Z,4.30
2023-02-09T15:02:52.344Z,4.50
2023-02-09T15:05:20.527Z,4.18
2023-02-09T15:07:50.020Z,4.55
2023-02-09T15:10:32.421Z,3.83
2023-02-09T15:12:59.454Z,4.53
2023-02-09T15:15:26.775Z,4.60
2023-02-09T15:17:55.264Z,4.82
2023-02-09T15:20:25.236Z,4.35
2023-02-09T15:22:52.910Z,4.55
2023-02-09T15:25:19.857Z,4.32
2023-02-09T15:27:52.656Z,4.30
2023-02-09T15:30:22.514Z,3.85
2023-02-09T15:32:49.405Z,4.75
2023-02-09T15:35:24.147Z,4.22
2023-02-09T15:37:56.670Z,4.07
2023-02-09T15:40:47.178Z,4.27
2023-02-09T15:43:35.291Z,4.25
2023-02-09T15:46:21.251Z,3.80
2023-02-09T15:48:48.030Z,4.10
2023-02-09T15:51:14.784Z,5.32
2023-02-09T15:53:41.796Z,4.37
2023-02-09T15:56:08.879Z,3.97
2023-02-09T15:58:37.883Z,3.92
2023-02-09T16:01:05.392Z,4.05
2023-02-09T16:03:32.022Z,4.25
2023-02-09T16:06:00.849Z,4.10
2023-02-09T16:08:37.401Z,4.45
2023-02-09T16:11:09.476Z,4.40
2023-02-09T16:13:36.613Z,4.07
2023-02-09T16:16:16.212Z,4.00
2023-02-09T16:18:44.431Z,3.93
2023-02-09T16:21:20.769Z,3.80
2023-02-09T16:23:47.937Z,4.13
2023-02-09T16:26:14.610Z,4.82
2023-02-09T16:28:41.209Z,4.55
2023-02-09T16:31:10.234Z,4.03
2023-02-09T16:33:38.790Z,4.00
2023-02-09T16:36:11.074Z,4.35
2023-02-09T16:38:37.678Z,3.70
2023-02-09T16:41:04.376Z,3.13
2023-02-09T16:43:30.955Z,4.63
2023-02-09T16:46:03.680Z,4.10
2023-02-09T16:48:31.920Z,4.40
2023-02-09T16:50:58.657Z,3.70
2023-02-09T16:53:51.721Z,4.43
2023-02-09T16:56:18.993Z,4.03
2023-02-09T16:58:46.630Z,3.67
2023-02-09T17:01:21.615Z,3.90
2023-02-09T17:03:53.904Z,4.60
2023-02-09T17:06:25.418Z,3.70
2023-02-09T17:08:53.266Z,3.53
2023-02-09T17:11:22.107Z,3.83
2023-02-09T17:13:48.936Z,4.32
2023-02-09T17:16:17.752Z,4.18
2023-02-09T17:18:45.703Z,3.85
2023-02-09T17:21:26.657Z,4.77
2023-02-09T17:23:54.382Z,4.00
2023-02-09T17:26:21.303Z,4.10
2023-02-09T17:28:47.892Z,4.15
2023-02-09T17:31:25.912Z,4.43
2023-02-09T17:34:00.914Z,4.33
2023-02-09T17:36:29.427Z,4.43
2023-02-09T17:38:58.536Z,3.80
2023-02-09T17:41:34.804Z,3.83
2023-02-09T17:44:22.412Z,4.07
2023-02-09T17:46:54.048Z,3.83
2023-02-09T17:49:22.038Z,4.18
2023-02-09T17:51:49.245Z,4.90
2023-02-09T17:54:18.738Z,3.50
2023-02-09T17:56:45.623Z,3.90
2023-02-09T17:59:13.422Z,3.63
2023-02-09T18:01:44.400Z,3.50
2023-02-09T18:04:20.184Z,3.85
2023-02-09T18:06:47.522Z,4.00
2023-02-09T18:09:14.347Z,4.05
2023-02-09T18:11:42.502Z,4.87
2023-02-09T18:14:12.724Z,4.38
2023-02-09T18:16:41.254Z,4.15
2023-02-09T18:19:11.433Z,3.53
2023-02-09T18:21:38.718Z,3.78
2023-02-09T18:24:06.195Z,4.43
2023-02-09T18:26:33.550Z,4.05
2023-02-09T18:29:00.170Z,4.13
2023-02-09T18:31:26.749Z,4.55
2023-02-09T18:33:54.082Z,4.35
2023-02-09T18:36:20.776Z,4.27
2023-02-09T18:38:48.182Z,3.90
2023-02-09T18:41:14.820Z,4.43
2023-02-09T18:43:41.413Z,4.28
2023-02-09T18:46:08.040Z,5.03
2023-02-09T18:48:34.751Z,4.30
2023-02-09T18:51:01.337Z,4.13
2023-02-09T18:53:27.934Z,4.50
2023-02-09T18:55:54.596Z,4.00
2023-02-09T18:58:21.217Z,3.92
2023-02-09T19:00:48.162Z,4.10
2023-02-09T19:03:17.672Z,4.05
2023-02-09T19:05:44.477Z,3.90
2023-02-09T19:08:11.282Z,3.90
2023-02-09T19:10:37.883Z,4.70
2023-02-09T19:13:04.967Z,4.10
2023-02-09T19:15:33.666Z,4.00
2023-02-09T19:18:00.562Z,4.28
2023-02-09T19:20:29.341Z,4.00
2023-02-09T19:22:56.194Z,3.97
2023-02-09T19:25:26.094Z,4.67
2023-02-09T19:27:53.688Z,4.40
2023-02-09T19:30:24.969Z,4.50
2023-02-09T19:32:52.778Z,4.30
2023-02-09T19:35:22.510Z,3.90
2023-02-09T19:37:53.390Z,4.03
2023-02-09T19:40:28.465Z,4.63
2023-02-09T19:42:56.233Z,4.47
2023-02-09T19:45:23.560Z,4.20
2023-02-09T19:47:50.247Z,4.22
2023-02-09T19:50:17.094Z,4.13
2023-02-09T19:52:46.717Z,4.32
2023-02-09T19:55:14.325Z,3.80
2023-02-09T19:57:42.443Z,4.22
2023-02-09T20:00:10.751Z,4.50
2023-02-09T20:02:37.413Z,3.67
2023-02-09T20:05:04.251Z,3.90
2023-02-09T20:07:30.886Z,4.10
2023-02-09T20:09:58.099Z,4.03
2023-02-09T20:12:25.018Z,4.70
2023-02-09T20:14:53.710Z,4.10
2023-02-09T20:17:21.000Z,4.00
2023-02-09T20:19:47.606Z,4.38
2023-02-09T20:22:14.249Z,4.25
2023-02-09T20:24:40.915Z,4.20
2023-02-09T20:27:07.902Z,4.10
2023-02-09T20:29:37.055Z,3.90
2023-02-09T20:32:04.073Z,4.50
2023-02-09T20:34:30.686Z,5.22
2023-02-09T20:36:57.594Z,4.05
2023-02-09T20:39:24.408Z,3.83
2023-02-09T20:42:14.043Z,4.57
2023-02-09T20:44:59.348Z,4.07
2023-02-09T20:47:30.158Z,4.38
2023-02-09T20:49:59.873Z,4.45
2023-02-09T20:52:29.773Z,4.87
2023-02-09T20:54:56.369Z,4.47
2023-02-09T20:57:29.265Z,4.20
2023-02-09T20:59:59.601Z,4.50
2023-02-09T21:02:27.115Z,4.35
2023-02-09T21:04:55.474Z,3.70
2023-02-09T21:07:22.072Z,4.18
2023-02-09T21:09:48.809Z,4.60
2023-02-09T21:12:15.467Z,4.60
2023-02-09T21:14:45.112Z,4.80
2023-02-09T21:17:12.487Z,4.33
2023-02-09T21:19:39.541Z,4.10
2023-02-09T21:22:06.556Z,3.80
2023-02-09T21:24:33.215Z,3.88
2023-02-09T21:27:02.933Z,4.80
2023-02-09T21:29:29.601Z,4.43
2023-02-09T21:31:56.915Z,4.30
2023-02-09T21:34:23.533Z,4.15
2023-02-09T21:36:50.149Z,4.30
2023-02-09T21:39:16.754Z,4.88
2023-02-09T21:42:01.767Z,4.10
2023-02-09T21:44:29.097Z,3.80
2023-02-09T21:46:55.748Z,4.38
2023-02-09T21:49:22.653Z,3.95
2023-02-09T21:51:49.531Z,4.03
2023-02-09T21:54:17.052Z,4.53
2023-02-09T21:56:44.156Z,3.97
2023-02-09T21:59:10.847Z,4.22
2023-02-09T22:01:37.629Z,4.38
2023-02-09T22:04:05.024Z,4.13
2023-02-09T22:06:31.957Z,5.00
2023-02-09T22:09:02.452Z,4.30
2023-02-09T22:11:29.740Z,4.45
2023-02-09T22:13:56.681Z,3.92
2023-02-09T22:16:24.063Z,4.20
2023-02-09T22:18:51.153Z,3.97
2023-02-09T22:21:18.252Z,4.43
2023-02-09T22:23:44.915Z,4.30
2023-02-09T22:26:13.804Z,4.50
2023-02-09T22:28:41.197Z,4.68
2023-02-09T22:31:09.856Z,4.27
2023-02-09T22:33:36.533Z,3.83
2023-02-09T22:36:08.172Z,4.35
2023-02-09T22:38:35.898Z,4.68
2023-02-09T22:41:07.532Z,4.75
2023-02-09T22:43:34.718Z,3.93
2023-02-09T22:46:01.441Z,4.25
2023-02-09T22:48:28.138Z,4.20
2023-02-09T22:50:54.751Z,3.90
2023-02-09T22:53:21.359Z,4.10
2023-02-09T22:55:49.454Z,4.13
2023-02-09T22:58:16.152Z,3.85
2023-02-09T23:00:42.735Z,4.80
2023-02-09T23:03:09.334Z,4.20
2023-02-09T23:05:36.025Z,4.32
2023-02-09T23:08:02.680Z,4.33
2023-02-09T23:10:29.272Z,4.63
2023-02-09T23:12:55.868Z,4.35
2023-02-09T23:15:22.493Z,4.53
2023-02-09T23:17:49.095Z,4.25
2023-02-09T23:20:15.752Z,4.23
2023-02-09T23:22:42.353Z,5.05
2023-02-09T23:25:08.931Z,4.43
2023-02-09T23:27:35.541Z,4.45
2023-02-09T23:30:02.154Z,4.57
2023-02-09T23:32:28.745Z,4.67
2023-02-09T23:34:55.343Z,4.70
2023-02-09T23:37:36.811Z,4.45
2023-02-09T23:40:04.686Z,4.63
2023-02-09T23:42:31.335Z,4.40
2023-02-09T23:44:57.943Z,3.70
2023-02-09T23:47:24.586Z,4.10
2023-02-09T23:49:51.203Z,4.07
2023-02-09T23:52:17.887Z,4.10
2023-02-09T23:54:44.489Z,5.07
2023-02-09T23:57:11.119Z,5.43
2023-02-09T23:59:37.711Z,4.55
